Time;durP1;ratioP1;P1;durP2;ratioP2;P2;SDS_P1;SDS_P2;PMS_P1;PMS_P2;Temp;Humidity;BMP_temperature;BMP_pressure;BME280_temperature;BME280_humidity;BME280_pressure;Samples;Min_cycle;Max_cycle;Signal;HPM_P1;HPM_P2
2022/06/22 00:01:37;;;;;;;4.40;4.10;;;22.70;99.90;;;;;;6087575;23;20529;-84
2022/06/22 00:04:06;;;;;;;4.30;3.90;;;22.60;99.90;;;;;;6070102;23;21119;-84
2022/06/22 00:06:41;;;;;;;4.37;3.97;;;22.60;99.90;;;;;;6073004;23;20446;-84
2022/06/22 00:09:23;;;;;;;5.50;4.60;;;22.50;99.90;;;;;;6067831;23;20437;-84
2022/06/22 00:11:51;;;;;;;5.40;4.90;;;22.40;99.90;;;;;;6050670;23;20546;-84
2022/06/22 00:14:24;;;;;;;5.33;4.93;;;22.30;99.90;;;;;;6072754;23;20482;-84
2022/06/22 00:16:53;;;;;;;5.13;4.73;;;22.30;99.90;;;;;;6087304;23;20442;-84
2022/06/22 00:19:31;;;;;;;5.20;4.70;;;22.30;99.90;;;;;;6076075;23;20453;-84
2022/06/22 00:21:59;;;;;;;4.80;4.23;;;22.30;99.90;;;;;;6066308;23;20882;-84
2022/06/22 00:24:40;;;;;;;5.00;4.70;;;22.30;99.90;;;;;;6067567;23;20819;-84
2022/06/22 00:27:16;;;;;;;5.50;5.00;;;22.20;99.90;;;;;;6053447;23;20428;-84
2022/06/22 00:29:46;;;;;;;4.93;4.63;;;22.10;99.90;;;;;;6071260;23;20914;-84
2022/06/22 00:32:25;;;;;;;5.27;4.83;;;22.10;99.90;;;;;;6061277;23;20467;-84
2022/06/22 00:34:53;;;;;;;5.43;4.80;;;22.00;99.90;;;;;;6083597;23;20566;-84
2022/06/22 00:37:25;;;;;;;5.17;4.83;;;22.00;99.90;;;;;;6063684;23;20443;-84
2022/06/22 00:39:54;;;;;;;5.00;4.67;;;22.00;99.90;;;;;;6070356;23;20431;-84
2022/06/22 00:42:30;;;;;;;4.00;3.70;;;22.10;99.90;;;;;;6061543;23;20427;-85
2022/06/22 00:45:02;;;;;;;4.83;4.53;;;22.10;99.90;;;;;;6074394;23;21012;-84
2022/06/22 00:47:31;;;;;;;6.50;5.10;;;22.20;99.90;;;;;;6078441;23;20435;-84
2022/06/22 00:50:02;;;;;;;4.70;4.40;;;22.20;99.90;;;;;;6073730;23;20523;-85
2022/06/22 00:52:37;;;;;;;5.43;4.87;;;22.20;99.90;;;;;;6062302;23;20471;-84
2022/06/22 00:55:17;;;;;;;5.07;4.70;;;22.20;99.90;;;;;;6084048;23;21385;-84
2022/06/22 00:57:49;;;;;;;4.47;4.13;;;22.30;99.90;;;;;;6063065;23;20435;-85
2022/06/22 01:00:20;;;;;;;4.83;4.43;;;22.30;99.90;;;;;;6062242;23;21017;-84
2022/06/22 01:02:54;;;;;;;4.93;4.53;;;22.40;99.90;;;;;;6061677;23;20443;-85
2022/06/22 01:05:27;;;;;;;5.13;4.73;;;22.40;99.90;;;;;;6082923;23;20982;-84
2022/06/22 01:08:02;;;;;;;4.43;4.13;;;22.40;99.90;;;;;;6062246;23;20500;-85
2022/06/22 01:10:36;;;;;;;5.10;4.70;;;22.50;99.90;;;;;;6078859;23;20435;-84
2022/06/22 01:13:13;;;;;;;4.33;4.03;;;22.50;99.90;;;;;;6088167;23;20527;-84
2022/06/22 01:15:45;;;;;;;4.70;4.40;;;22.50;99.90;;;;;;6063035;23;20455;-85
2022/06/22 01:18:16;;;;;;;5.70;4.97;;;22.50;99.90;;;;;;6065949;23;20454;-84
2022/06/22 01:20:53;;;;;;;4.90;4.50;;;22.40;99.90;;;;;;6074315;23;20443;-84
2022/06/22 01:23:45;;;;;;;4.50;4.10;;;22.40;99.90;;;;;;6083647;23;20502;-85
2022/06/22 01:26:34;;;;;;;4.93;4.53;;;22.30;99.90;;;;;;6079070;23;20526;-84
2022/06/22 01:29:07;;;;;;;4.60;4.20;;;22.30;99.90;;;;;;6063724;23;20721;-84
2022/06/22 01:31:35;;;;;;;5.30;4.90;;;22.30;99.90;;;;;;6074587;23;20474;-85
2022/06/22 01:34:03;;;;;;;6.30;5.70;;;22.30;99.90;;;;;;6072696;23;20898;-85
2022/06/22 01:36:33;;;;;;;5.93;5.40;;;22.30;99.90;;;;;;6085360;23;20933;-84
2022/06/22 01:39:03;;;;;;;6.57;5.20;;;22.30;99.90;;;;;;6076398;23;20470;-85
2022/06/22 01:41:39;;;;;;;5.93;5.33;;;22.30;99.90;;;;;;6067793;23;20533;-85
2022/06/22 01:44:14;;;;;;;5.60;5.20;;;22.30;99.90;;;;;;6067983;23;20462;-85
2022/06/22 01:46:49;;;;;;;6.00;5.30;;;22.30;99.90;;;;;;6071583;23;20440;-86
2022/06/22 01:49:23;;;;;;;7.13;5.70;;;22.30;99.90;;;;;;6066383;23;20431;-85
2022/06/22 01:51:54;;;;;;;6.70;6.07;;;22.30;99.90;;;;;;6067041;23;20521;-85
2022/06/22 01:54:26;;;;;;;5.87;5.43;;;22.30;99.90;;;;;;6077091;23;20496;-86
2022/06/22 01:56:58;;;;;;;7.23;5.33;;;22.20;99.90;;;;;;6081572;23;20430;-85
2022/06/22 01:59:36;;;;;;;5.60;5.20;;;22.10;99.90;;;;;;6058003;23;20447;-85
2022/06/22 02:02:09;;;;;;;6.50;6.00;;;22.00;99.90;;;;;;6059521;23;20434;-86
2022/06/22 02:04:41;;;;;;;6.77;6.30;;;21.90;99.90;;;;;;6077620;23;20477;-85
2022/06/22 02:10:15;;;;;;;7.27;6.67;;;21.60;99.90;;;;;;6087428;23;20445;-85
2022/06/22 02:12:46;;;;;;;10.73;9.83;;;21.50;99.90;;;;;;6061633;23;20517;-85
2022/06/22 02:15:22;;;;;;;9.60;8.53;;;21.40;99.90;;;;;;6083087;23;20822;-85
2022/06/22 02:17:52;;;;;;;9.63;8.90;;;21.50;99.90;;;;;;6082011;23;20514;-85
2022/06/22 02:20:34;;;;;;;9.70;8.90;;;21.40;99.90;;;;;;6067045;23;20441;-86
2022/06/22 02:23:11;;;;;;;9.57;8.67;;;21.50;99.90;;;;;;6078842;23;20462;-86
2022/06/22 02:25:48;;;;;;;9.83;8.97;;;21.60;99.90;;;;;;6064861;23;20466;-86
2022/06/22 02:28:16;;;;;;;9.50;8.80;;;21.70;99.90;;;;;;6072052;23;20531;-85
2022/06/22 02:30:45;;;;;;;9.83;9.07;;;21.70;99.90;;;;;;6082625;23;20454;-85
2022/06/22 02:33:13;;;;;;;9.47;8.67;;;21.70;99.90;;;;;;6063038;23;20486;-85
2022/06/22 02:35:42;;;;;;;8.93;8.33;;;21.70;99.90;;;;;;6075184;23;20440;-85
2022/06/22 02:38:13;;;;;;;7.97;7.37;;;21.70;99.90;;;;;;6075453;23;20438;-86
2022/06/22 02:46:18;;;;;;;6.67;6.17;;;21.70;99.90;;;;;;6081111;23;20513;-85
2022/06/22 02:48:49;;;;;;;6.30;5.77;;;21.60;99.90;;;;;;6081990;23;20442;-86
2022/06/22 02:51:23;;;;;;;6.03;5.53;;;21.70;99.90;;;;;;6076821;23;20954;-85
2022/06/22 02:53:51;;;;;;;7.03;6.13;;;21.80;99.90;;;;;;6055209;23;20459;-86
2022/06/22 02:56:23;;;;;;;6.10;5.70;;;21.90;99.90;;;;;;6062026;23;20443;-86
2022/06/22 02:58:50;;;;;;;6.43;5.90;;;21.90;99.90;;;;;;6080140;23;20439;-85
2022/06/22 03:01:21;;;;;;;6.47;5.97;;;22.00;99.90;;;;;;6068071;23;21018;-86
2022/06/22 03:03:52;;;;;;;7.10;6.60;;;22.10;99.90;;;;;;6057637;23;20451;-86
2022/06/22 03:06:23;;;;;;;7.03;6.43;;;22.00;99.90;;;;;;6074956;23;20466;-86
2022/06/22 03:08:51;;;;;;;6.47;5.87;;;21.90;99.90;;;;;;6075098;23;20456;-86
2022/06/22 03:11:19;;;;;;;6.10;5.70;;;21.80;99.90;;;;;;6068079;23;22410;-86
2022/06/22 03:13:50;;;;;;;6.83;6.23;;;21.50;99.90;;;;;;6081031;23;20538;-85
2022/06/22 03:16:26;;;;;;;7.47;6.87;;;21.30;99.90;;;;;;6066263;23;20972;-85
2022/06/22 03:18:54;;;;;;;7.50;6.90;;;21.30;99.90;;;;;;6080001;23;20513;-85
2022/06/22 03:21:22;;;;;;;8.40;7.67;;;21.10;99.90;;;;;;6069786;23;20458;-86
2022/06/22 03:23:54;;;;;;;7.63;7.03;;;21.00;99.90;;;;;;6064910;23;20471;-85
2022/06/22 03:26:24;;;;;;;7.57;7.07;;;21.00;99.90;;;;;;6073112;23;20431;-85
2022/06/22 03:28:57;;;;;;;8.40;7.70;;;20.90;99.90;;;;;;6063796;23;20471;-85
2022/06/22 03:31:32;;;;;;;7.57;7.03;;;20.80;99.90;;;;;;6088937;23;20438;-86
2022/06/22 03:34:07;;;;;;;7.47;6.87;;;20.80;99.90;;;;;;6082732;23;20465;-86
2022/06/22 03:36:38;;;;;;;7.47;6.90;;;20.80;99.90;;;;;;6070882;23;20435;-86
2022/06/22 03:39:08;;;;;;;7.67;6.97;;;20.70;99.90;;;;;;6062432;23;20501;-86
2022/06/22 03:41:40;;;;;;;7.97;7.37;;;20.80;99.90;;;;;;6053694;23;20453;-85
2022/06/22 03:44:11;;;;;;;7.37;6.90;;;20.80;99.90;;;;;;6057711;23;20481;-84
2022/06/22 03:46:45;;;;;;;7.77;7.00;;;20.70;99.90;;;;;;6065551;23;20527;-80
2022/06/22 03:49:21;;;;;;;7.43;6.83;;;20.80;99.90;;;;;;6059204;23;20473;-79
2022/06/22 03:51:52;;;;;;;7.33;6.70;;;20.80;99.90;;;;;;6058777;23;20909;-78
2022/06/22 03:54:24;;;;;;;7.47;6.97;;;20.90;99.90;;;;;;6048418;23;20547;-77
2022/06/22 03:56:54;;;;;;;8.30;7.77;;;21.00;99.90;;;;;;6062027;23;20436;-76
2022/06/22 03:59:22;;;;;;;6.63;6.23;;;21.10;99.90;;;;;;6056770;23;20443;-76
2022/06/22 04:01:51;;;;;;;7.10;6.60;;;21.20;99.90;;;;;;6061298;23;20566;-78
2022/06/22 04:04:20;;;;;;;5.77;5.37;;;21.30;99.90;;;;;;6057825;23;20553;-77
2022/06/22 04:06:49;;;;;;;6.30;5.80;;;21.40;99.90;;;;;;6059590;23;20447;-77
2022/06/22 04:09:21;;;;;;;6.23;5.73;;;21.50;99.90;;;;;;6065247;23;20457;-76
2022/06/22 04:11:54;;;;;;;6.60;5.97;;;21.60;99.90;;;;;;6080464;23;20527;-77
2022/06/22 04:14:31;;;;;;;6.47;5.87;;;21.70;99.90;;;;;;6065810;23;20926;-77
2022/06/22 04:17:03;;;;;;;6.37;5.80;;;21.70;99.90;;;;;;6053146;23;20455;-79
2022/06/22 04:19:34;;;;;;;10.80;5.70;;;21.80;99.90;;;;;;6059981;23;20850;-77
2022/06/22 04:22:03;;;;;;;6.83;5.90;;;21.90;99.90;;;;;;6057576;23;20439;-75
2022/06/22 04:24:34;;;;;;;6.83;6.33;;;22.00;99.90;;;;;;6054127;23;20471;-75
2022/06/22 04:27:08;;;;;;;6.87;6.00;;;22.10;99.90;;;;;;6057210;23;20442;-75
2022/06/22 04:29:40;;;;;;;6.20;5.60;;;22.20;99.90;;;;;;6058020;23;20455;-75
2022/06/22 04:32:15;;;;;;;6.77;6.07;;;22.20;99.90;;;;;;6055743;23;20977;-75
2022/06/22 04:34:46;;;;;;;6.33;5.83;;;22.30;99.90;;;;;;6059703;23;20478;-74
2022/06/22 04:37:32;;;;;;;7.13;6.43;;;22.40;99.90;;;;;;6060251;23;20451;-75
2022/06/22 04:40:12;;;;;;;6.80;6.20;;;22.40;99.90;;;;;;6075618;23;20455;-75
2022/06/22 04:42:40;;;;;;;6.80;5.73;;;22.50;99.90;;;;;;6043736;23;20443;-76
2022/06/22 04:45:17;;;;;;;5.87;5.40;;;22.50;99.90;;;;;;6057200;23;20455;-77
2022/06/22 04:47:45;;;;;;;7.70;6.77;;;22.60;99.90;;;;;;6048162;23;20493;-77
2022/06/22 04:50:14;;;;;;;6.80;6.17;;;22.60;99.90;;;;;;6058555;23;20435;-77
2022/06/22 04:52:43;;;;;;;5.60;5.10;;;22.70;99.90;;;;;;6059233;23;20471;-76
2022/06/22 04:55:15;;;;;;;6.07;5.60;;;22.70;99.90;;;;;;6057881;23;20474;-77
2022/06/22 04:57:45;;;;;;;7.00;6.33;;;22.90;99.90;;;;;;6027880;23;20448;-76
2022/06/22 05:00:17;;;;;;;6.70;6.10;;;22.90;99.90;;;;;;6047105;23;20521;-77
2022/06/22 05:02:48;;;;;;;5.70;5.13;;;23.00;99.90;;;;;;6053716;23;20462;-77
2022/06/22 05:05:21;;;;;;;6.27;5.67;;;23.00;99.90;;;;;;6057557;23;20461;-76
2022/06/22 05:07:52;;;;;;;6.30;5.80;;;23.00;99.90;;;;;;6050985;23;20427;-76
2022/06/22 05:10:23;;;;;;;5.90;5.50;;;23.10;99.90;;;;;;6059792;23;20435;-77
2022/06/22 05:12:56;;;;;;;6.60;6.13;;;23.10;99.90;;;;;;6056102;23;20477;-75
2022/06/22 05:15:27;;;;;;;5.93;5.07;;;23.10;99.90;;;;;;6053173;23;20449;-75
2022/06/22 05:17:57;;;;;;;5.73;5.23;;;23.10;99.90;;;;;;6054090;23;20432;-75
2022/06/22 05:20:30;;;;;;;6.50;6.00;;;23.20;99.90;;;;;;6054646;23;20435;-75
2022/06/22 05:23:02;;;;;;;6.77;5.80;;;23.30;99.90;;;;;;6059559;23;20466;-76
2022/06/22 05:25:31;;;;;;;6.40;5.50;;;23.40;99.90;;;;;;6058287;23;20459;-76
2022/06/22 05:28:02;;;;;;;5.77;5.27;;;23.50;99.90;;;;;;6055580;23;20443;-75
2022/06/22 05:30:34;;;;;;;6.47;5.97;;;23.50;99.90;;;;;;6059182;23;20447;-76
2022/06/22 05:33:08;;;;;;;6.00;5.50;;;23.60;99.90;;;;;;6051980;23;20612;-76
2022/06/22 05:35:39;;;;;;;6.23;5.70;;;23.70;99.90;;;;;;6050638;23;20442;-76
2022/06/22 05:38:09;;;;;;;6.40;5.90;;;23.80;99.90;;;;;;6059136;23;22223;-75
2022/06/22 05:40:40;;;;;;;6.53;5.93;;;23.80;99.90;;;;;;6058243;23;20855;-76
2022/06/22 05:43:08;;;;;;;7.20;6.50;;;23.80;99.90;;;;;;6058483;23;20547;-76
2022/06/22 05:45:43;;;;;;;6.93;6.33;;;23.80;99.90;;;;;;6054664;23;21725;-77
2022/06/22 05:48:15;;;;;;;6.23;5.70;;;23.80;99.90;;;;;;6057433;23;20438;-76
2022/06/22 05:50:46;;;;;;;6.43;5.90;;;23.80;99.90;;;;;;6053224;23;20448;-76
2022/06/22 05:53:18;;;;;;;7.23;6.33;;;23.80;99.90;;;;;;6056451;23;20869;-77
2022/06/22 05:55:54;;;;;;;7.17;6.50;;;23.80;99.90;;;;;;6054463;23;20459;-76
2022/06/22 05:58:27;;;;;;;6.83;6.33;;;23.70;99.90;;;;;;6059553;23;20435;-76
2022/06/22 06:00:56;;;;;;;6.87;6.37;;;23.70;99.90;;;;;;6057630;23;20449;-76
2022/06/22 06:03:33;;;;;;;13.40;7.70;;;23.50;99.90;;;;;;6059968;23;20941;-76
2022/06/22 06:06:06;;;;;;;10.03;6.97;;;23.50;99.90;;;;;;6059441;23;20431;-76
2022/06/22 06:08:41;;;;;;;7.50;6.77;;;23.30;99.90;;;;;;6055861;23;20922;-76
2022/06/22 06:11:15;;;;;;;7.03;6.53;;;23.10;99.90;;;;;;6053513;23;20456;-76
2022/06/22 06:13:47;;;;;;;8.63;7.80;;;23.00;99.90;;;;;;6056163;23;20470;-76
2022/06/22 06:16:21;;;;;;;8.73;7.90;;;23.00;99.90;;;;;;6061523;23;20537;-76
2022/06/22 06:18:50;;;;;;;8.00;7.20;;;22.90;99.90;;;;;;6043156;23;20436;-76
2022/06/22 06:21:20;;;;;;;7.63;7.03;;;22.90;99.90;;;;;;6052249;23;20442;-76
2022/06/22 06:23:51;;;;;;;7.43;6.73;;;22.80;99.90;;;;;;6050101;23;20456;-75
2022/06/22 06:29:17;;;;;;;7.37;6.57;;;22.60;99.90;;;;;;6054597;23;20455;-76
2022/06/22 06:32:00;;;;;;;7.60;7.00;;;22.60;99.90;;;;;;6056171;23;20447;-76
2022/06/22 06:34:34;;;;;;;8.10;7.50;;;22.70;99.90;;;;;;6050163;23;20478;-76
2022/06/22 06:37:04;;;;;;;7.50;6.90;;;22.60;99.90;;;;;;6046415;23;20845;-76
2022/06/22 06:39:37;;;;;;;7.20;6.53;;;22.50;99.90;;;;;;6055070;23;20445;-76
2022/06/22 06:42:13;;;;;;;6.80;6.20;;;22.50;99.90;;;;;;6058108;23;20459;-76
2022/06/22 06:44:43;;;;;;;6.57;5.90;;;22.50;99.90;;;;;;6052211;23;20435;-76
2022/06/22 06:47:15;;;;;;;6.27;5.77;;;22.50;99.90;;;;;;6055640;23;20448;-75
2022/06/22 06:49:48;;;;;;;6.70;6.20;;;22.60;99.90;;;;;;6053679;23;20472;-76
2022/06/22 06:52:26;;;;;;;6.77;6.17;;;22.70;99.90;;;;;;6053040;23;20431;-77
2022/06/22 06:55:01;;;;;;;7.13;6.47;;;22.80;99.90;;;;;;6053720;23;20475;-76
2022/06/22 06:57:30;;;;;;;7.50;6.90;;;22.90;99.90;;;;;;6056988;23;20450;-77
2022/06/22 07:00:00;;;;;;;6.80;6.20;;;23.10;99.90;;;;;;6053375;23;20769;-77
2022/06/22 07:02:32;;;;;;;6.83;6.33;;;23.30;99.90;;;;;;6055928;23;20455;-74
2022/06/22 07:05:02;;;;;;;6.30;5.70;;;23.30;99.90;;;;;;6056328;23;21014;-74
2022/06/22 07:07:38;;;;;;;7.30;5.83;;;23.40;99.90;;;;;;6045767;23;20493;-77
2022/06/22 07:10:11;;;;;;;6.37;5.77;;;23.40;99.90;;;;;;6073784;23;20434;-76
2022/06/22 07:12:44;;;;;;;6.30;5.50;;;23.40;99.90;;;;;;6056347;23;20510;-76
2022/06/22 07:15:17;;;;;;;5.97;5.57;;;23.40;99.90;;;;;;6072962;23;20807;-75
2022/06/22 07:17:47;;;;;;;6.40;5.80;;;23.40;99.90;;;;;;6058736;23;20490;-76
2022/06/22 07:20:22;;;;;;;5.93;5.50;;;23.30;99.90;;;;;;6060366;23;20454;-76
2022/06/22 07:22:52;;;;;;;6.23;5.63;;;23.40;99.90;;;;;;6062582;23;20462;-76
2022/06/22 07:25:26;;;;;;;5.77;5.30;;;23.50;99.90;;;;;;6068745;23;21002;-76
2022/06/22 07:27:57;;;;;;;8.57;6.60;;;23.50;99.90;;;;;;6072237;23;20447;-76
2022/06/22 07:30:29;;;;;;;7.30;6.47;;;23.60;99.90;;;;;;6063141;23;20912;-76
2022/06/22 07:33:02;;;;;;;7.30;6.80;;;23.70;99.90;;;;;;6063651;23;20558;-76
2022/06/22 07:35:37;;;;;;;7.73;6.40;;;23.70;99.90;;;;;;6042919;23;20453;-77
2022/06/22 07:38:13;;;;;;;7.10;6.50;;;23.60;99.90;;;;;;6061039;23;20546;-76
2022/06/22 07:41:18;;;;;;;7.13;6.23;;;23.60;99.90;;;;;;6065082;23;20457;-76
2022/06/22 07:43:28;;;;;;;6.60;6.20;;;23.60;99.90;;;;;;6065778;23;20458;-77
2022/06/22 07:45:56;;;;;;;6.77;6.17;;;23.60;99.90;;;;;;6066997;23;20960;-79
2022/06/22 07:48:25;;;;;;;6.93;6.33;;;23.60;99.90;;;;;;6085007;23;20446;-76
2022/06/22 07:50:56;;;;;;;6.90;6.30;;;23.80;99.90;;;;;;6059910;23;20937;-76
2022/06/22 07:53:30;;;;;;;8.70;6.37;;;23.90;99.90;;;;;;6058540;23;20467;-76
2022/06/22 07:56:04;;;;;;;6.73;6.00;;;24.10;99.90;;;;;;6048509;23;20510;-76
2022/06/22 07:58:35;;;;;;;5.63;5.13;;;24.20;99.90;;;;;;6050130;23;20468;-76
2022/06/22 08:01:06;;;;;;;5.80;5.27;;;24.30;99.90;;;;;;6059275;23;20526;-76
2022/06/22 08:03:38;;;;;;;6.80;6.20;;;24.40;99.90;;;;;;6050054;23;20463;-77
2022/06/22 08:06:11;;;;;;;6.13;5.53;;;24.50;99.90;;;;;;6057341;23;20438;-76
2022/06/22 08:08:43;;;;;;;6.00;5.53;;;24.50;99.90;;;;;;6052753;23;20750;-77
2022/06/22 08:11:17;;;;;;;5.97;5.53;;;24.70;99.90;;;;;;6058352;23;20432;-76
2022/06/22 08:13:52;;;;;;;6.40;5.80;;;24.70;99.90;;;;;;6057196;23;20507;-76
2022/06/22 08:16:23;;;;;;;5.57;5.07;;;24.80;99.90;;;;;;6053965;23;20442;-77
2022/06/22 08:18:51;;;;;;;6.07;5.50;;;24.90;99.90;;;;;;6058177;23;20443;-76
2022/06/22 08:21:20;;;;;;;8.03;6.63;;;24.90;99.90;;;;;;6058979;23;20436;-76
2022/06/22 08:23:48;;;;;;;6.73;6.13;;;24.90;99.90;;;;;;6058072;23;20478;-76
2022/06/22 08:26:21;;;;;;;6.23;5.63;;;24.90;99.90;;;;;;6059754;23;20501;-76
2022/06/22 08:28:50;;;;;;;6.53;5.93;;;24.80;99.90;;;;;;6052830;23;20511;-76
2022/06/22 08:31:17;;;;;;;7.10;6.40;;;24.80;99.90;;;;;;6063530;23;20530;-76
2022/06/22 08:33:48;;;;;;;6.83;6.30;;;24.70;99.90;;;;;;6061574;23;20495;-76
2022/06/22 08:36:20;;;;;;;6.17;5.57;;;24.50;99.90;;;;;;6063786;23;20543;-76
2022/06/22 08:38:52;;;;;;;7.10;6.40;;;24.30;99.90;;;;;;6060391;23;20926;-76
2022/06/22 08:41:38;;;;;;;8.13;6.70;;;24.00;99.90;;;;;;6060596;23;20446;-77
2022/06/22 08:44:16;;;;;;;7.17;6.50;;;23.90;99.90;;;;;;6063130;23;20466;-76
2022/06/22 08:47:06;;;;;;;6.57;5.97;;;23.80;99.90;;;;;;6064547;23;20962;-76
2022/06/22 08:49:56;;;;;;;7.63;7.03;;;23.70;99.90;;;;;;6066437;23;20527;-76
2022/06/22 08:52:38;;;;;;;6.87;6.37;;;23.60;99.90;;;;;;6057271;23;20534;-76
2022/06/22 08:55:23;;;;;;;8.37;7.57;;;23.40;99.90;;;;;;6061731;23;20475;-76
2022/06/22 08:58:01;;;;;;;6.67;6.13;;;23.20;99.90;;;;;;6052065;23;20946;-76
2022/06/22 09:00:37;;;;;;;8.07;7.37;;;23.20;99.90;;;;;;6076919;23;20438;-76
2022/06/22 09:03:30;;;;;;;8.50;6.80;;;23.20;99.90;;;;;;6064990;23;21091;-76
2022/06/22 09:06:15;;;;;;;6.97;6.37;;;23.10;99.90;;;;;;6053884;23;20538;-75
2022/06/22 09:09:14;;;;;;;8.13;7.40;;;23.10;99.90;;;;;;6061808;23;20435;-76
2022/06/22 09:11:50;;;;;;;8.07;7.47;;;23.10;99.90;;;;;;6075092;23;20447;-77
2022/06/22 09:14:49;;;;;;;7.77;7.17;;;23.00;99.90;;;;;;6065790;23;20980;-76
2022/06/22 09:17:41;;;;;;;9.17;8.23;;;23.00;99.90;;;;;;6053219;23;20470;-78
2022/06/22 09:20:34;;;;;;;9.33;8.43;;;22.80;99.90;;;;;;6058401;23;20538;-76
2022/06/22 09:23:15;;;;;;;9.77;9.00;;;22.60;99.90;;;;;;6066306;23;20473;-76
2022/06/22 09:25:48;;;;;;;9.47;8.50;;;22.60;99.90;;;;;;6063135;23;20457;-76
2022/06/22 09:28:26;;;;;;;8.57;7.87;;;22.60;99.90;;;;;;6059287;23;20707;-76
2022/06/22 09:31:27;;;;;;;9.20;8.40;;;22.70;99.90;;;;;;6075741;23;20461;-76
2022/06/22 09:34:10;;;;;;;10.60;9.60;;;22.90;99.90;;;;;;6063716;23;20481;-76
2022/06/22 09:37:02;;;;;;;8.70;7.90;;;22.90;99.90;;;;;;6062375;23;20526;-76
2022/06/22 09:39:44;;;;;;;10.07;9.37;;;22.90;99.90;;;;;;6068860;23;20451;-76
2022/06/22 09:42:41;;;;;;;10.27;9.37;;;23.00;99.90;;;;;;6073199;23;20506;-76
2022/06/22 09:45:40;;;;;;;10.60;9.43;;;22.90;99.90;;;;;;6070969;23;20498;-76
2022/06/22 09:48:40;;;;;;;11.20;10.10;;;22.90;99.90;;;;;;6062710;23;20443;-77
2022/06/22 09:51:35;;;;;;;11.03;10.13;;;23.00;99.90;;;;;;6066334;23;20443;-77
2022/06/22 09:57:29;;;;;;;11.00;9.90;;;23.10;99.90;;;;;;6059402;23;20811;-77
2022/06/22 10:00:05;;;;;;;9.17;8.37;;;23.20;99.90;;;;;;6065452;23;21037;-76
2022/06/22 10:03:04;;;;;;;7.63;6.80;;;23.50;99.90;;;;;;6070181;23;20463;-76
2022/06/22 10:06:15;;;;;;;7.27;6.63;;;23.80;99.90;;;;;;6061439;23;20499;-76
2022/06/22 10:08:55;;;;;;;7.27;6.57;;;23.90;99.90;;;;;;6053346;23;20515;-76
2022/06/22 10:11:31;;;;;;;7.17;6.60;;;24.20;99.90;;;;;;6054907;23;20435;-76
2022/06/22 10:14:43;;;;;;;8.33;6.90;;;24.30;99.90;;;;;;6060533;23;20516;-76
2022/06/22 10:17:31;;;;;;;6.90;6.40;;;24.30;99.90;;;;;;5975336;23;20475;-77
2022/06/22 10:20:19;;;;;;;6.50;5.73;;;24.40;99.90;;;;;;6053249;23;20447;-77
2022/06/22 10:22:57;;;;;;;7.67;6.80;;;24.40;99.90;;;;;;6053014;23;20467;-76
2022/06/22 10:25:45;;;;;;;7.10;6.40;;;24.30;99.90;;;;;;6061267;22;20479;-77
2022/06/22 10:28:29;;;;;;;7.77;7.00;;;24.50;99.90;;;;;;6049965;23;20474;-78
2022/06/22 10:31:06;;;;;;;14.17;8.10;;;24.70;99.90;;;;;;6051072;23;20510;-78
2022/06/22 10:34:09;;;;;;;7.93;7.13;;;24.80;99.90;;;;;;6044667;23;20475;-78
2022/06/22 10:37:05;;;;;;;7.60;7.00;;;24.80;99.90;;;;;;6054480;23;20444;-78
2022/06/22 10:45:08;;;;;;;7.10;6.47;;;24.60;99.90;;;;;;6044204;23;20444;-78
2022/06/22 10:45:57;;;;;;;8.37;7.60;;;23.90;99.90;;;;;;6039492;23;20456;-78
2022/06/22 10:48:58;;;;;;;8.03;7.40;;;23.40;99.90;;;;;;6037096;23;20797;-78
2022/06/22 10:51:59;;;;;;;8.87;8.17;;;23.30;99.90;;;;;;6041458;23;20444;-78
2022/06/22 10:54:55;;;;;;;8.57;7.80;;;23.10;99.90;;;;;;6052736;23;20447;-77
2022/06/22 10:57:40;;;;;;;9.87;8.80;;;23.00;99.90;;;;;;6052270;23;20439;-77
2022/06/22 11:00:23;;;;;;;10.20;9.40;;;22.70;99.90;;;;;;6048556;23;20471;-77
2022/06/22 11:03:23;;;;;;;10.37;9.47;;;22.30;99.90;;;;;;6054788;23;20463;-77
2022/06/22 11:06:14;;;;;;;10.83;9.57;;;22.00;99.90;;;;;;6047256;23;20442;-77
2022/06/22 11:09:07;;;;;;;11.47;10.57;;;21.90;99.90;;;;;;6048110;23;20503;-76
2022/06/22 11:11:56;;;;;;;12.00;11.13;;;21.90;99.90;;;;;;6054439;23;20458;-78
2022/06/22 11:15:02;;;;;;;12.47;11.27;;;22.00;99.90;;;;;;6055278;23;20458;-78
2022/06/22 11:17:50;;;;;;;13.23;12.27;;;22.00;99.90;;;;;;6049671;23;20480;-78
2022/06/22 11:20:34;;;;;;;12.00;11.00;;;21.70;99.90;;;;;;6054274;23;20442;-78
2022/06/22 11:23:09;;;;;;;11.63;10.73;;;21.40;99.90;;;;;;6053755;23;20455;-76
2022/06/22 11:32:22;;;;;;;11.67;10.77;;;21.10;99.90;;;;;;6051845;23;20529;-78
2022/06/22 11:35:09;;;;;;;12.00;11.00;;;21.20;99.90;;;;;;6054001;23;21005;-78
2022/06/22 11:37:56;;;;;;;11.20;10.10;;;21.20;99.90;;;;;;6053081;23;20453;-78
2022/06/22 11:40:39;;;;;;;12.07;11.23;;;21.20;99.90;;;;;;6060162;23;20431;-77
2022/06/22 11:43:30;;;;;;;12.17;11.27;;;21.20;99.90;;;;;;6047788;23;20470;-77
2022/06/22 11:46:05;;;;;;;13.00;11.30;;;21.40;99.90;;;;;;5993006;23;20443;-77
2022/06/22 11:49:08;;;;;;;12.43;11.43;;;21.50;99.90;;;;;;6046521;23;20439;-78
2022/06/22 11:52:10;;;;;;;13.23;12.20;;;21.60;99.90;;;;;;6050802;23;20455;-78
2022/06/22 11:54:51;;;;;;;13.20;12.00;;;21.60;99.90;;;;;;6054378;23;20506;-78
2022/06/22 11:57:34;;;;;;;13.70;12.60;;;21.70;99.90;;;;;;6049019;23;20427;-78
2022/06/22 12:00:13;;;;;;;11.70;10.80;;;22.00;99.90;;;;;;6052524;23;20466;-78
2022/06/22 12:03:17;;;;;;;12.70;11.80;;;22.40;99.90;;;;;;6053194;23;20459;-78
2022/06/22 12:06:18;;;;;;;11.00;10.10;;;22.80;99.90;;;;;;6051900;23;21104;-77
2022/06/22 12:09:02;;;;;;;10.90;10.10;;;23.20;99.90;;;;;;6041179;23;20486;-78
2022/06/22 12:11:41;;;;;;;12.23;11.20;;;23.60;99.90;;;;;;6042602;23;20611;-78
2022/06/22 12:17:35;;;;;;;9.70;8.90;;;24.50;99.90;;;;;;6051246;23;20440;-78
2022/06/22 12:20:14;;;;;;;10.50;9.60;;;25.00;99.90;;;;;;6060062;23;20446;-78
2022/06/22 12:22:53;;;;;;;9.87;9.07;;;25.40;99.90;;;;;;6060278;23;20470;-78
2022/06/22 12:25:41;;;;;;;10.43;9.53;;;25.80;99.90;;;;;;6054942;23;20446;-78
2022/06/22 12:28:23;;;;;;;9.67;8.80;;;26.10;99.90;;;;;;6051120;23;20983;-79
2022/06/22 12:31:00;;;;;;;7.13;6.43;;;26.30;99.90;;;;;;6042744;23;20976;-78
2022/06/22 12:33:33;;;;;;;7.53;6.90;;;26.50;99.90;;;;;;6039665;23;20994;-78
2022/06/22 12:36:07;;;;;;;8.33;7.60;;;26.60;99.90;;;;;;6049873;23;20462;-78
2022/06/22 12:38:39;;;;;;;6.60;6.00;;;26.40;99.90;;;;;;6053758;23;20497;-79
2022/06/22 12:41:19;;;;;;;6.97;6.37;;;26.30;99.90;;;;;;6059272;23;20873;-79
2022/06/22 12:44:13;;;;;;;6.47;5.87;;;26.30;99.90;;;;;;6058359;23;21073;-78
2022/06/22 12:46:58;;;;;;;6.80;6.10;;;25.90;99.90;;;;;;6047140;23;20985;-78
2022/06/22 12:49:59;;;;;;;9.20;7.07;;;25.70;99.90;;;;;;6049738;23;20447;-78
2022/06/22 12:52:33;;;;;;;6.70;6.10;;;25.50;99.90;;;;;;6012577;23;21016;-78
2022/06/22 12:55:05;;;;;;;6.90;6.30;;;25.30;99.90;;;;;;6053807;23;20466;-77
2022/06/22 12:57:40;;;;;;;7.20;6.50;;;25.30;99.90;;;;;;6052959;23;20427;-78
2022/06/22 13:00:11;;;;;;;8.03;6.53;;;25.30;99.90;;;;;;6042555;23;21040;-78
2022/06/22 13:02:40;;;;;;;7.90;7.13;;;25.10;99.90;;;;;;6058304;23;20463;-78
2022/06/22 13:05:12;;;;;;;7.37;6.57;;;24.70;99.90;;;;;;6055984;23;20522;-78
2022/06/22 13:07:44;;;;;;;7.63;6.93;;;24.50;99.90;;;;;;6049218;23;20795;-77
2022/06/22 13:10:16;;;;;;;7.70;7.00;;;24.30;99.90;;;;;;6045802;23;20448;-77
2022/06/22 13:12:51;;;;;;;13.33;6.77;;;24.00;99.90;;;;;;6041294;23;20970;-77
2022/06/22 13:15:22;;;;;;;7.27;6.57;;;23.80;99.90;;;;;;6060808;23;20462;-78
2022/06/22 13:17:59;;;;;;;13.90;12.70;;;23.70;99.90;;;;;;6060961;23;20446;-77
2022/06/22 13:20:40;;;;;;;6.77;6.17;;;23.70;99.90;;;;;;6060204;23;20764;-78
2022/06/22 13:23:16;;;;;;;6.40;5.80;;;23.90;99.90;;;;;;6051580;23;20439;-78
2022/06/22 13:25:52;;;;;;;6.33;5.70;;;24.00;99.90;;;;;;6059343;23;20447;-78
2022/06/22 13:28:27;;;;;;;6.53;5.83;;;24.30;99.90;;;;;;6048032;23;20442;-77
2022/06/22 13:30:58;;;;;;;11.00;10.20;;;24.50;99.90;;;;;;6050474;23;20457;-77
2022/06/22 13:33:32;;;;;;;13.00;12.00;;;24.70;99.90;;;;;;6042231;23;20563;-80
2022/06/22 13:36:06;;;;;;;12.97;11.87;;;25.00;99.90;;;;;;6053661;23;20494;-80
2022/06/22 13:38:56;;;;;;;13.13;12.13;;;25.00;99.90;;;;;;6049356;23;20478;-79
2022/06/22 13:41:35;;;;;;;14.47;13.40;;;24.90;99.90;;;;;;6056071;23;20456;-79
2022/06/22 13:44:39;;;;;;;15.53;14.23;;;24.70;99.90;;;;;;6057942;23;20435;-79
2022/06/22 13:47:21;;;;;;;14.80;13.60;;;24.40;99.90;;;;;;6054628;23;20509;-79
2022/06/22 13:50:14;;;;;;;16.07;14.87;;;24.10;99.90;;;;;;6051838;23;20495;-79
2022/06/22 13:52:44;;;;;;;15.67;14.47;;;24.00;99.90;;;;;;6045236;23;20460;-79
2022/06/22 13:55:39;;;;;;;16.00;14.80;;;24.00;99.90;;;;;;6051665;23;20459;-80
2022/06/22 13:58:14;;;;;;;17.70;16.40;;;24.00;99.90;;;;;;6052382;23;21095;-79
2022/06/22 14:00:51;;;;;;;15.67;14.50;;;24.10;99.90;;;;;;6046996;23;20942;-79